createdAt,value
2022-10-02T00:04:51.391Z,14.68
2022-10-02T00:09:58.379Z,23.85
2022-10-02T00:15:07.306Z,22.52
2022-10-02T00:20:15.855Z,23.02
2022-10-02T00:25:20.655Z,19.48
2022-10-02T00:30:22.476Z,27.73
2022-10-02T00:35:47.081Z,20.20
2022-10-02T00:40:59.166Z,17.45
2022-10-02T00:46:12.768Z,16.17
2022-10-02T00:51:22.949Z,22.40
2022-10-02T00:56:24.745Z,19.05
2022-10-02T01:01:34.664Z,23.35
2022-10-02T01:06:36.716Z,19.27
2022-10-02T01:11:39.510Z,26.33
2022-10-02T01:16:41.642Z,30.93
2022-10-02T01:21:48.273Z,23.70
2022-10-02T01:26:50.056Z,21.15
2022-10-02T01:31:51.910Z,22.42
2022-10-02T01:36:54.213Z,22.10
2022-10-02T01:41:56.450Z,19.45
2022-10-02T01:47:04.462Z,23.55
2022-10-02T01:52:24.867Z,21.08
2022-10-02T01:57:33.844Z,18.08
2022-10-02T02:02:41.919Z,18.00
2022-10-02T02:07:43.736Z,19.23
2022-10-02T02:12:47.551Z,17.85
2022-10-02T02:17:54.146Z,14.43
2022-10-02T02:22:58.173Z,19.60
2022-10-02T02:28:02.832Z,14.68
2022-10-02T02:33:07.247Z,18.25
2022-10-02T02:38:18.804Z,15.30
2022-10-02T02:43:32.482Z,16.50
2022-10-02T02:48:39.372Z,19.38
2022-10-02T02:53:43.549Z,12.00
2022-10-02T02:58:58.136Z,26.58
2022-10-02T03:04:00.064Z,26.55
2022-10-02T03:09:02.012Z,17.85
2022-10-02T03:14:16.499Z,21.20
2022-10-02T03:19:40.339Z,18.17
2022-10-02T03:24:49.460Z,22.90
2022-10-02T03:30:03.235Z,23.73
2022-10-02T03:40:06.998Z,25.80
2022-10-02T03:45:08.989Z,19.75
2022-10-02T03:50:13.832Z,21.15
2022-10-02T03:55:18.358Z,19.60
2022-10-02T04:00:33.969Z,17.25
2022-10-02T04:05:56.074Z,14.07
2022-10-02T04:11:18.106Z,18.48
2022-10-02T04:16:31.417Z,11.15
2022-10-02T04:21:45.331Z,12.13
2022-10-02T04:26:53.670Z,13.73
2022-10-02T04:32:01.742Z,15.30
2022-10-02T04:37:23.778Z,8.63
2022-10-02T04:42:37.726Z,18.20
2022-10-02T04:47:39.478Z,8.77
2022-10-02T04:52:50.154Z,11.00
2022-10-02T04:58:12.205Z,12.98
2022-10-02T05:03:23.194Z,9.35
2022-10-02T05:08:27.959Z,12.77
2022-10-02T05:13:40.400Z,16.30
2022-10-02T05:18:42.180Z,15.10
2022-10-02T05:23:57.868Z,18.13
2022-10-02T05:29:08.402Z,18.30
2022-10-02T05:34:13.249Z,21.67
2022-10-02T05:39:18.540Z,14.15
2022-10-02T05:44:24.192Z,24.35
2022-10-02T05:49:37.909Z,11.70
2022-10-02T05:54:58.461Z,11.80
2022-10-02T06:00:04.353Z,14.77
2022-10-02T06:05:43.293Z,15.05
2022-10-02T06:10:48.741Z,19.83
2022-10-02T06:16:12.061Z,9.98
2022-10-02T06:21:30.471Z,16.17
2022-10-02T06:26:52.508Z,11.05
2022-10-02T06:32:01.016Z,14.88
2022-10-02T06:37:08.240Z,11.98
2022-10-02T06:42:17.720Z,17.02
2022-10-02T06:47:22.253Z,14.68
2022-10-02T06:52:41.453Z,12.57
2022-10-02T06:57:52.299Z,15.80
2022-10-02T07:03:12.978Z,17.63
2022-10-02T07:08:17.750Z,9.55
2022-10-02T07:13:22.287Z,16.83
2022-10-02T07:18:27.067Z,14.45
2022-10-02T07:23:34.724Z,16.77
2022-10-02T07:28:55.313Z,18.02
2022-10-02T07:34:14.484Z,12.63
2022-10-02T07:39:24.738Z,13.60
2022-10-02T07:44:29.266Z,16.58
2022-10-02T07:55:21.485Z,9.27
2022-10-02T08:00:24.367Z,11.27
2022-10-02T08:05:43.651Z,13.48
2022-10-02T08:10:49.192Z,10.88
2022-10-02T08:15:55.565Z,14.82
2022-10-02T08:20:57.684Z,10.75
2022-10-02T08:26:12.196Z,9.02
2022-10-02T08:31:14.616Z,9.23
2022-10-02T08:36:35.194Z,11.13
2022-10-02T08:41:43.038Z,13.05
2022-10-02T08:46:44.811Z,7.63
2022-10-02T08:51:52.910Z,6.03
2022-10-02T08:57:07.232Z,7.38
2022-10-02T09:02:18.007Z,7.18
2022-10-02T09:07:35.159Z,7.88
2022-10-02T09:13:02.700Z,9.85
2022-10-02T09:18:15.536Z,11.70
2022-10-02T09:23:17.311Z,10.43
2022-10-02T09:28:27.980Z,6.82
2022-10-02T09:33:48.538Z,10.82
2022-10-02T09:38:53.555Z,4.47
2022-10-02T09:44:16.469Z,4.93
2022-10-02T09:49:27.864Z,3.50
2022-10-02T09:54:32.793Z,3.33
2022-10-02T09:59:53.076Z,3.38
2022-10-02T10:05:15.131Z,4.72
2022-10-02T10:10:35.538Z,3.28
2022-10-02T10:15:52.883Z,8.00
2022-10-02T10:20:57.685Z,3.78
2022-10-02T10:26:18.315Z,4.93
2022-10-02T10:31:26.118Z,4.78
2022-10-02T10:36:27.925Z,4.50
2022-10-02T10:41:29.691Z,10.88
2022-10-02T10:46:31.463Z,5.43
2022-10-02T10:51:38.849Z,7.30
2022-10-02T10:56:43.077Z,8.95
2022-10-02T11:01:47.916Z,7.57
2022-10-02T11:07:08.335Z,7.50
2022-10-02T11:12:32.242Z,10.30
2022-10-02T11:17:36.920Z,7.40
2022-10-02T11:22:45.954Z,7.60
2022-10-02T11:27:47.784Z,6.57
2022-10-02T11:32:49.557Z,10.52
2022-10-02T17:34:56.763Z,15.50
2022-10-02T17:40:07.641Z,8.82
2022-10-02T17:45:19.676Z,13.43
2022-10-02T17:50:24.280Z,13.80
2022-10-02T17:55:32.640Z,10.43
2022-10-02T18:00:36.942Z,10.32
2022-10-02T18:05:38.807Z,13.20
2022-10-02T18:10:55.677Z,16.00
2022-10-02T18:16:12.592Z,10.52
2022-10-02T18:21:23.047Z,20.52
2022-10-02T18:26:27.724Z,11.48
2022-10-02T18:31:55.085Z,10.55
2022-10-02T18:37:00.963Z,12.77
2022-10-02T18:42:02.765Z,13.77
2022-10-02T18:47:13.859Z,14.65
2022-10-02T18:52:15.748Z,18.58
2022-10-02T18:57:29.584Z,16.95
2022-10-02T19:07:39.980Z,23.45
2022-10-02T19:12:42.795Z,14.82
2022-10-02T19:17:56.313Z,21.40
2022-10-02T19:22:58.103Z,13.02
2022-10-02T19:28:01.741Z,13.60
2022-10-02T19:33:05.908Z,15.93
2022-10-02T19:38:19.211Z,16.95
2022-10-02T19:43:25.273Z,14.43
2022-10-02T19:48:27.828Z,8.85
2022-10-02T19:53:35.735Z,21.33
2022-10-02T19:58:41.364Z,15.88
2022-10-02T20:03:43.648Z,16.05
2022-10-02T20:08:48.338Z,14.48
2022-10-02T20:13:53.211Z,12.82
2022-10-02T20:18:55.415Z,17.88
2022-10-02T20:23:58.103Z,13.40
2022-10-02T20:29:01.491Z,19.10
2022-10-02T20:34:06.712Z,28.48
2022-10-02T20:39:12.136Z,21.90
2022-10-02T20:44:13.957Z,21.50
2022-10-02T20:49:34.768Z,24.08
2022-10-02T20:54:42.784Z,21.40
2022-10-02T20:59:44.676Z,20.45
2022-10-02T21:05:02.383Z,17.88
2022-10-02T21:10:23.033Z,19.35
2022-10-02T21:15:27.703Z,18.85
2022-10-02T21:20:51.290Z,20.20
2022-10-02T21:25:53.455Z,20.48
2022-10-02T21:30:55.374Z,20.35
2022-10-02T21:36:15.889Z,17.73
2022-10-02T21:41:17.773Z,20.30
2022-10-02T21:46:42.593Z,24.67
2022-10-02T21:51:44.508Z,23.10
2022-10-02T21:57:06.851Z,15.15
2022-10-02T22:02:30.757Z,16.40
2022-10-02T22:07:32.596Z,21.67
2022-10-02T22:12:43.079Z,18.85
2022-10-02T22:17:50.969Z,18.23
2022-10-02T22:23:05.010Z,20.73
2022-10-02T22:28:13.077Z,22.85
2022-10-02T22:33:24.860Z,19.27
2022-10-02T22:38:37.611Z,24.17
2022-10-02T22:43:57.083Z,17.23
2022-10-02T22:49:17.669Z,22.40
2022-10-02T22:54:45.571Z,16.92
2022-10-02T23:00:13.446Z,16.33
2022-10-02T23:05:30.517Z,19.30
